George, South Africa

7:44 AM SAST on May 30, 2015 (GMT +0200)
George | | Change Station
CLOSE
Current Station
Airport
Location: George,
Elevation: 633 ft
Nearby Weather Stations

Elev 633 ft 34.01 °S, 22.38 °E | Updated 44 minutes ago

Scattered Clouds
Scattered Clouds
55 °F
Feels Like 55 °F
N
5
Wind Variable Wind from WNW

Today
High -- | Low -- °F
--% Chance of Precip.
Yesterday
High -- | Low -- °F
Precip. -- in
7:25 AM 5:29 PM
Waxing Gibbous, 88% visible
Pressure 29.95 in
Visibility 6.2 miles
Clouds Few 1000 ft
Scattered Clouds 2000 ft
Dew Point 54 °F
Humidity 94%
Rainfall 0.00 in
Snow Depth Not available.
UV 0 out of 12
Pollen Not available.
Air Quality Not available.
Flu Activity Not available.
METAR FAGG 300500Z 30004KT 270V330 9999 FEW010 SCT020 13/12 Q1014

More Conditions Fewer Conditions

Pressure 29.95 in
Visibility 6.2 miles
Clouds Few 1000 ft
Scattered Clouds 2000 ft
Dew Point 54 °F
Humidity 94%
Rainfall 0.00 in
Snow Depth Not available.
UV 0 out of 12
Pollen Not available.
Air Quality Not available.
Flu Activity Not available.
METAR FAGG 300500Z 30004KT 270V330 9999 FEW010 SCT020 13/12 Q1014

More Conditions Fewer Conditions

10-Day Weather Forecast

Almanac

Astronomy

May. 30, 2015 Rise Set
Actual Time
Civil Twilight
Nautical Twilight
Astronomical Twilight
Moon
Length of Visible Light
Length of Day
Tomorrow will be .
, % of the Moon is Illuminated

Today's Extremes

Country Highs Country Lows

Community

WunderPhotos

Upload Photos

1,825,473 photos uploaded!

WunderBlogs® & News

Nearby

Air Quality

  Air Quality AQ Index Pollutant
Not available.

Snow Depth

Station Depth Elevation

Earthquake Activity

City Distance Mag. Time & Date
Minimum magnitude displayed is 2.5.

Coastal Water Temperatures

Place Temperature

Stations

Nearby Weather Stations

Station Location Temp. Windchill Dew Point Humidity Wind Precip. Elev Updated Type